HOURLY OBS INDEX

033

Central Coast - east

ALVA BEACH

Site: 033295
Alt: 7.5m
74km ESE of TOWNSVILLE


  Time     Wind        Temp  DP   Baro     Rain since   Rain past  Vis(m), Cloud(base in m), Weather
  local        km/h                         9am  last   hr   10m    
Wed 16:00   NE 24/ 28  24.7 15.3  1013.3    0.0   0.0   0.0   0.0   ----- 
Wed 16:30   NE 20/ 24  24.2 14.9  1013.5    0.0   0.0   0.0   0.0   ----- 
Wed 17:00   NE 17/ 20  23.9 14.0  1013.9    0.0   0.0   0.0   0.0   ----- 
Wed 17:30   NE 19/ 22  23.5 14.2  1014.1    0.0   0.0   0.0   0.0   ----- 
Wed 18:00  NNE 15/ 19  23.3 15.4  1014.4    0.0   0.0   0.0   0.0   ----- 
Wed 18:30   NE 13/ 15  22.9 14.5  1014.6    0.0   0.0   0.0   0.0   ----- 
Wed 19:00  ENE 15/ 19  23.0 15.1  1014.8    0.0   0.0   0.0   0.0   ----- 
Wed 19:30  ENE 17/ 19  23.0 15.1  1015.2    0.0   0.0   0.0   0.0   ----- 
Wed 20:00  ENE 15/ 19  22.8 14.4  1015.5    0.0   0.0   0.0   0.0   ----- 
Wed 20:30  ENE 17/ 20  22.8 15.4  1015.7    0.0   0.0   0.0   0.0   ----- 
Wed 21:00  ENE 17/ 20  22.7 15.3  1015.9    0.0   0.0   0.0   0.0   ----- 

AYR DPI RESEARCH STN

Site: 033002
Alt: 17.0m
71km SE of TOWNSVILLE


  Time     Wind        Temp  DP   Baro     Rain since   Rain past  Vis(m), Cloud(base in m), Weather
  local        km/h                         9am  last   hr   10m    
Wed 16:00  NNE 17/ 30  25.8 13.3  ------    0.0   0.0   0.0   0.0   ----- 
Wed 16:30   NE 17/ 24  25.1 13.0  ------    0.0   0.0   0.0   0.0   ----- 
Wed 17:00  NNE 17/ 26  25.0 13.2  ------    0.0   0.0   0.0   0.0   ----- 
Wed 17:30  NNE 13/ 20  24.0 13.2  ------    0.0   0.0   0.0   0.0   ----- 
Wed 18:00  NNE 13/ 19  23.0 13.2  ------    0.0   0.0   0.0   0.0   ----- 
Wed 18:30   NE  7/ 11  22.0 13.6  ------    0.0   0.0   0.0   0.0   ----- 
Wed 19:00   NE  4/  6  20.7 13.4  ------    0.0   0.0   0.0   0.0   ----- 
Wed 19:30    C  0/  6  19.6 13.3  ------    0.0   0.0   0.0   0.0   ----- 
Wed 20:00    C  0/  0  18.8 13.6  ------    0.0   0.0   0.0   0.0   ----- 
Wed 20:30    C  0/  0  18.1 13.4  ------    0.0   0.0   0.0   0.0   ----- 
Wed 21:00    C  0/  0  17.7 13.6  ------    0.0   0.0   0.0   0.0   ----- 

BOWEN AIRPORT AWS

Site: 033327
Alt: 5.9m
km of


  Time     Wind        Temp  DP   Baro     Rain since   Rain past  Vis(m), Cloud(base in m), Weather
  local        km/h                         9am  last   hr   10m    
Wed 16:00   NE 26/ 33  24.6 14.1  1012.9    0.0   0.0   0.0   0.0   ----- 
Wed 16:30   NE 19/ 30  24.5 14.0  1013.3    0.0   0.0   0.0   0.0   ----- 
Wed 17:00   NE 22/ 28  23.9 14.0  1013.6    0.0   0.0   0.0   0.0   ----- 
Wed 17:30   NE 19/ 26  23.6 14.3  1013.8    0.0   0.0   0.0   0.0   ----- 
Wed 18:00   NE 19/ 24  22.9 14.5  1014.1    0.0   0.0   0.0   0.0   ----- 
Wed 18:30   NE 15/ 22  22.6 14.4  1014.4    0.0   0.0   0.0   0.0   ----- 
Wed 19:00   NE 13/ 19  22.4 14.5  1014.7    0.0   0.0   0.0   0.0   ----- 
Wed 19:30   NE 11/ 15  22.2 14.6  1015.1    0.0   0.0   0.0   0.0   ----- 
Wed 20:00   NE  9/ 11  22.0 14.6  1015.6    0.0   0.0   0.0   0.0   ----- 
Wed 20:30   NE  7/  9  21.6 14.7  1015.8    0.0   0.0   0.0   0.0   ----- 
Wed 21:00   NE  4/  4  21.1 14.7  1016.0    0.0   0.0   0.0   0.0   ----- 

HAMILTON ISLAND AIRPORT

Site: 033106
Alt: 58.7m
83km ESE of BOWEN


  Time     Wind        Temp  DP   Baro     Rain since   Rain past  Vis(m), Cloud(base in m), Weather
  local        km/h                         9am  last   hr   10m    
Wed 16:00  ESE 15/ 20  23.0 15.3  1014.4    0.0   0.0   0.0   0.0   10000 
Wed 16:30  ESE 17/ 20  22.7 15.8  1014.5    0.0   0.0   0.0   0.0   10000 
Wed 17:00    E 19/ 22  22.3 15.2  1014.6    0.0   0.0   0.0   0.0   10000 
Wed 17:30  ESE 19/ 20  22.1 15.2  1014.9    0.0   0.0   0.0   0.0   10000 
Wed 18:00  ESE 19/ 22  21.8 14.9  1015.0    0.0   0.0   0.0   0.0   10000 
Wed 18:30  ESE 20/ 24  21.8 15.6  1015.4    0.0   0.0   0.0   0.0   10000 
Wed 19:00  ESE 19/ 22  21.7 16.0  1015.6    0.0   0.0   0.0   0.0   10000 
Wed 19:30    E 20/ 26  21.8 15.9  1015.8    0.0   0.0   0.0   0.0   10000 
Wed 20:00  ESE 20/ 26  21.7 16.6  1016.1    0.0   0.0   0.0   0.0   10000 
Wed 20:30  ESE 20/ 24  21.7 16.4  1016.4    0.0   0.0   0.0   0.0   10000 
Wed 21:00  ESE 19/ 22  21.5 15.8  1016.6    0.0   0.0   0.0   0.0   10000 

HAY POINT

Site: 033317
Alt: 7.0m
20km SE of MACKAY


  Time     Wind        Temp  DP   Baro     Rain since   Rain past  Vis(m), Cloud(base in m), Weather
  local        km/h                         9am  last   hr   10m    
Wed 16:00  ENE 11/ 13 --------  ------   ----  ----  ----  ----   ----- 
Wed 16:30  ENE 13/ 15 --------  ------   ----  ----  ----  ----   ----- 
Wed 17:00   NE 11/ 13 --------  ------   ----  ----  ----  ----   ----- 
Wed 17:30   NE  9/ 11 --------  ------   ----  ----  ----  ----   ----- 
Wed 18:00   NE 13/ 15 --------  ------   ----  ----  ----  ----   ----- 
Wed 18:30  NNE 11/ 15 --------  ------   ----  ----  ----  ----   ----- 
Wed 19:00   NE  9/ 13 --------  ------   ----  ----  ----  ----   ----- 
Wed 19:30   NE  7/ 11 --------  ------   ----  ----  ----  ----   ----- 
Wed 20:00   NE  9/ 11 --------  ------   ----  ----  ----  ----   ----- 
Wed 20:30  ENE  7/ 11 --------  ------   ----  ----  ----  ----   ----- 
Wed 21:00   NE  9/ 11 --------  ------   ----  ----  ----  ----   ----- 

MACKAY AERO

Site: 033045
Alt: 4.7m
3km S of MACKAY


  Time     Wind        Temp  DP   Baro     Rain since   Rain past  Vis(m), Cloud(base in m), Weather
  local        km/h                         9am  last   hr   10m    
Wed 16:00    E 17/ 22  24.3 14.7  1014.0    0.0   0.0   0.0   0.0   10000 
Wed 16:30  ENE 15/ 20  23.9 14.3  1014.1    0.0   0.0   0.0   0.0   10000 
Wed 17:00    E 13/ 19  23.7 15.2  1014.5    0.0   0.0   0.0   0.0   10000 
Wed 17:30  ENE 13/ 19  22.9 15.5  1014.7    0.0   0.0   0.0   0.0   10000 
Wed 18:00  ENE 13/ 17  22.1 15.5  1014.8    0.0   0.0   0.0   0.0   10000 
Wed 18:30  ENE  9/ 13  21.7 15.8  1015.2    0.0   0.0   0.0   0.0   10000 
Wed 19:00  ENE 11/ 13  21.2 15.3  1015.6    0.0   0.0   0.0   0.0   10000 
Wed 19:30  ENE  7/  9  20.7 15.0  1015.9    0.0   0.0   0.0   0.0   10000 
Wed 20:00  ENE  7/  9  19.7 14.5  1016.1    0.0   0.0   0.0   0.0   10000 
Wed 20:30    C  0/  0  18.1 13.8  1016.2    0.0   0.0   0.0   0.0   10000 
Wed 21:00    C  0/  6  18.6 15.3  1016.3    0.0   0.0   0.0   0.0   10000 

MACKAY M.O

Site: 033119
Alt: 30.3m
5km NE of MACKAY


  Time     Wind        Temp  DP   Baro     Rain since   Rain past  Vis(m), Cloud(base in m), Weather
  local        km/h                         9am  last   hr   10m    
Wed 16:00    E 11/ 19  24.0 14.4  1014.2    0.0   0.0   0.0   0.0   ----- 
Wed 16:30  ENE  9/ 17  23.7 14.4  1014.3    0.0   0.0   0.0   0.0   ----- 
Wed 17:00  ENE  9/ 17  23.3 15.1  1014.6    0.0   0.0   0.0   0.0   ----- 
Wed 17:30    E  9/ 13  22.5 14.9  1014.9    0.0   0.0   0.0   0.0   ----- 
Wed 18:00   NE  6/ 11  21.5 14.4  1015.0    0.0   0.0   0.0   0.0   ----- 
Wed 18:30   NE  6/  9  20.8 14.5  1015.4    0.0   0.0   0.0   0.0   ----- 
Wed 19:00   NE  6/  9  20.8 14.9  1015.7    0.0   0.0   0.0   0.0   ----- 
Wed 19:30  ENE  6/  9  21.0 15.1  1016.0    0.0   0.0   0.0   0.0   ----- 
Wed 20:00  ENE  6/  9  20.8 14.9  1016.2    0.0   0.0   0.0   0.0   ----- 
Wed 20:30    E  7/ 11  21.0 15.1  1016.5    0.0   0.0   0.0   0.0   ----- 
Wed 21:00    E  9/ 11  20.8 14.9  1016.5    0.0   0.0   0.0   0.0   ----- 

OORALEA RACECOURSE (MACKAY TURF CLUB)

Site: 033329
Alt: 10.3m
km of


  Time     Wind        Temp  DP   Baro     Rain since   Rain past  Vis(m), Cloud(base in m), Weather
  local        km/h                         9am  last   hr   10m    
Wed 16:00    E 13/ 20  23.8 14.8  ------    0.0   0.0   0.0   0.0   ----- 
Wed 16:30  ENE 11/ 15  23.5 15.0  ------    0.0   0.0   0.0   0.0   ----- 
Wed 17:00    E  9/ 17  23.3 15.1  ------    0.0   0.0   0.0   0.0   ----- 
Wed 17:30    E  9/ 15  22.6 15.2  ------    0.0   0.0   0.0   0.0   ----- 
Wed 18:00   NE  9/ 13  22.1 15.7  ------    0.0   0.0   0.0   0.0   ----- 
Wed 18:30  ENE  6/  9  21.7 15.5  ------    0.0   0.0   0.0   0.0   ----- 
Wed 19:00  ENE  4/  7  21.5 15.6  ------    0.0   0.0   0.0   0.0   ----- 
Wed 19:30  ENE  2/  4  21.2 15.5  ------    0.0   0.0   0.0   0.0   ----- 
Wed 20:00  ENE  4/  6  19.9 14.0  ------    0.0   0.0   0.0   0.0   ----- 
Wed 20:30  ENE  2/  6  17.8 14.5  ------    0.0   0.0   0.0   0.0   ----- 
Wed 21:00    C  0/  0  16.4 13.9  ------    0.0   0.0   0.0   0.0   ----- 

PROSERPINE AIRPORT

Site: 033247
Alt: 19.7m
62km SSE of BOWEN


  Time     Wind        Temp  DP   Baro     Rain since   Rain past  Vis(m), Cloud(base in m), Weather
  local        km/h                         9am  last   hr   10m    
Wed 16:00  ESE 20/ 30  26.7 12.7  1013.4    0.0   0.0   0.0   0.0   10000 
Wed 16:30  ESE 24/ 32  25.3 12.9  1013.6    0.0   0.0   0.0   0.0   10000 
Wed 17:00  ESE 19/ 24  24.7 13.0  1014.0    0.0   0.0   0.0   0.0   10000 
Wed 17:30  ESE 17/ 22  23.7 13.3  1014.4    0.0   0.0   0.0   0.0   10000 
Wed 18:00  ESE 13/ 17  22.7 13.2  1014.5    0.0   0.0   0.0   0.0   10000 
Wed 18:30  ESE  9/ 13  21.0 14.2  1015.0    0.0   0.0   0.0   0.0   10000 
Wed 19:00   SE 11/ 13  19.6 15.0  1015.4    0.0   0.0   0.0   0.0   10000 
Wed 19:30  SSE  9/  9  19.3 15.6  1015.8    0.0   0.0   0.0   0.0   10000 
Wed 20:00    S  7/  9  19.3 15.6  1016.2    0.0   0.0   0.0   0.0   10000 
Wed 20:30  SSW  9/  9  18.2 14.9  1016.3    0.0   0.0   0.0   0.0   10000 
Wed 21:00  SSW  7/  7  17.9 15.2  1016.6    0.0   0.0   0.0   0.0   10000 

ROSSLYN BAY NTC AWS

Site: 033208
Alt: 0.0m
37km NE of ROCKHAMPTON


  Time     Wind        Temp  DP   Baro     Rain since   Rain past  Vis(m), Cloud(base in m), Weather
  local        km/h                         9am  last   hr   10m    
Wed 16:00   NE 17/ 24  22.0----  1013.9   ----  ----  ----  ----   ----- 
Wed 16:30   NE 13/ 17  22.1----  1014.2   ----  ----  ----  ----   ----- 
Wed 17:00  ENE 13/ 20  22.1----  1014.4   ----  ----  ----  ----   ----- 
Wed 17:30  ENE 15/ 22  22.0----  1014.6   ----  ----  ----  ----   ----- 
Wed 18:00   NE 15/ 19  21.8----  1014.8   ----  ----  ----  ----   ----- 
Wed 18:30  ENE 11/ 20  21.9----  1015.1   ----  ----  ----  ----   ----- 
Wed 19:00  ENE 15/ 20  21.8----  1015.4   ----  ----  ----  ----   ----- 
Wed 19:30  ENE 15/ 20  21.8----  1015.7   ----  ----  ----  ----   ----- 
Wed 20:00   NE 17/ 20  21.8----  1016.0   ----  ----  ----  ----   ----- 
Wed 20:30  NNE 17/ 24  21.7----  1016.1   ----  ----  ----  ----   ----- 
Wed 21:00  NNE 19/ 26  21.7----  1016.2   ----  ----  ----  ----   ----- 

SAMUEL HILL AERO

Site: 033308
Alt: 31.0m
71km NNE of ROCKHAMPTON


  Time     Wind        Temp  DP   Baro     Rain since   Rain past  Vis(m), Cloud(base in m), Weather
  local        km/h                         9am  last   hr   10m    
Wed 16:00   NE 17/ 24  24.2 10.8  1013.9    0.0   0.0   0.0   0.0   10000 
Wed 16:30   NE 15/ 20  23.4 11.5  1014.1    0.0   0.0   0.0   0.0   10000 
Wed 17:00   NE 13/ 20  22.5 11.9  1014.6    0.0   0.0   0.0   0.0   10000 
Wed 17:30   NE  9/ 15  21.5 12.6  1014.9    0.0   0.0   0.0   0.0   10000 
Wed 18:00   NE  7/  9  19.9 12.7  1015.1    0.0   0.0   0.0   0.0   10000 
Wed 18:30   NE  2/  6  17.7 11.9  1015.5    0.0   0.0   0.0   0.0   10000 
Wed 19:00    C  0/  0  15.9 12.1  1015.9    0.0   0.0   0.0   0.0   10000 
Wed 19:30    C  0/  0  14.8 11.6  1016.3    0.0   0.0   0.0   0.0   10000 
Wed 20:00   NE  2/  7  13.6 11.0  1016.7    0.0   0.0   0.0   0.0   10000 
Wed 20:30    C  0/  4  13.8 12.0  1016.8    0.0   0.0   0.0   0.0   10000 
Wed 21:00    W  4/  6  13.4 11.1  1016.9    0.0   0.0   0.0   0.0   10000 

ST LAWRENCE

Site: 033210
Alt: 9.2m
138km SSE of MACKAY


  Time     Wind        Temp  DP   Baro     Rain since   Rain past  Vis(m), Cloud(base in m), Weather
  local        km/h                         9am  last   hr   10m    
Wed 16:00  NNE 19/ 24  25.5 10.5  1013.6    0.0   0.0   0.0   0.0   ----- 
Wed 16:30   NE 17/ 22  25.0  8.5  1013.9    0.0   0.0   0.0   0.0   ----- 
Wed 17:00  NNE 17/ 24  24.9  9.6  1014.1    0.0   0.0   0.0   0.0   ----- 
Wed 17:30    N 17/ 22  23.8 10.5  1014.4    0.0   0.0   0.0   0.0   ----- 
Wed 18:00  NNE 13/ 17  22.5 13.0  1014.6    0.0   0.0   0.0   0.0   ----- 
Wed 18:30  NNE 13/ 17  21.8 13.9  1015.0    0.0   0.0   0.0   0.0   ----- 
Wed 19:00  NNE 11/ 17  21.7 14.4  1015.3    0.0   0.0   0.0   0.0   ----- 
Wed 19:30  NNE 13/ 19  21.5 14.6  1015.9    0.0   0.0   0.0   0.0   ----- 
Wed 20:00   NE  9/ 13  21.0 14.4  1016.2    0.0   0.0   0.0   0.0   ----- 
Wed 20:30   NE 11/ 15  20.9 14.5  1016.2    0.0   0.0   0.0   0.0   ----- 
Wed 21:00   NE 11/ 17  20.9 14.5  1016.5    0.0   0.0   0.0   0.0   ----- 

TOWNSVILLE-FANNING RIVER (DEFENCE)

Site: 033328
Alt: 329.0m
67km NNE of TOWNSVILLE


  Time     Wind        Temp  DP   Baro     Rain since   Rain past  Vis(m), Cloud(base in m), Weather
  local        km/h                         9am  last   hr   10m    
Wed 16:00   NE 13/ 24  28.1 13.2  1013.2    0.0   0.0   0.0   0.0   ----- 
Wed 16:30  ENE  9/ 20  27.4 13.0  1013.4    0.0   0.0   0.0   0.0   ----- 
Wed 17:00  ENE 13/ 20  26.4 12.8  1013.6    0.0   0.0   0.0   0.0   ----- 
Wed 17:30  NNE 15/ 22  24.9 12.8  1014.0    0.0   0.0   0.0   0.0   ----- 
Wed 18:00  NNE 15/ 24  23.4 12.7  1014.4    0.0   0.0   0.0   0.0   ----- 
Wed 18:30  NNE  9/ 15  22.4 12.1  1014.8    0.0   0.0   0.0   0.0   ----- 
Wed 19:00   NE  9/ 20  21.7 12.0  1014.9    0.0   0.0   0.0   0.0   ----- 
Wed 19:30   NE  7/ 13  21.1 12.0  1015.4    0.0   0.0   0.0   0.0   ----- 
Wed 20:00  ENE  7/ 11  20.4 12.4  1015.9    0.0   0.0   0.0   0.0   ----- 
Wed 20:30   NE  4/  7  20.3 13.0  1016.3    0.0   0.0   0.0   0.0   ----- 
Wed 21:00  ENE  6/  9  19.3 12.3  1016.6    0.0   0.0   0.0   0.0   ----- 

WILLIAMSON

Site: 033195
Alt: 27.6m
105km NNW of ROCKHAMPTON


  Time     Wind        Temp  DP   Baro     Rain since   Rain past  Vis(m), Cloud(base in m), Weather
  local        km/h                         9am  last   hr   10m    
Wed 16:00   NE 20/ 32  24.6  9.3  1013.6    0.0   0.0   0.0   0.0   ----- 
Wed 16:30    N 20/ 30  23.7 10.0  1014.0    0.0   0.0   0.0   0.0   ----- 
Wed 17:00  NNE 17/ 28  23.0 11.7  1014.5    0.0   0.0   0.0   0.0   ----- 
Wed 17:30    N 15/ 22  22.2 12.7  1014.8    0.0   0.0   0.0   0.0   ----- 
Wed 18:00  NNE  9/ 17  21.4 13.1  1015.1    0.0   0.0   0.0   0.0   ----- 
Wed 18:30  NNE  7/  9  20.8 13.0  1015.5    0.0   0.0   0.0   0.0   ----- 
Wed 19:00  NNE  6/  7  19.9 12.9  1015.9    0.0   0.0   0.0   0.0   ----- 
Wed 19:30   NE  4/  7  18.9 12.6  1016.5    0.0   0.0   0.0   0.0   ----- 
Wed 20:00    C  0/  0  17.7 12.6  1017.0    0.0   0.0   0.0   0.0   ----- 
Wed 20:30    C  0/  0  16.6 11.7  1017.0    0.0   0.0   0.0   0.0   ----- 
Wed 21:00  ENE  2/  6  15.7 11.7  1017.0    0.0   0.0   0.0   0.0   ----- 

WOOLSHED

Site: 033307
Alt: 556.0m
34km WSW of TOWNSVILLE


  Time     Wind        Temp  DP   Baro     Rain since   Rain past  Vis(m), Cloud(base in m), Weather
  local        km/h                         9am  last   hr   10m    
Wed 16:00  NNE 15/ 32  22.4 12.4  1015.2    0.2   0.0   0.0   0.0   ----- 
Wed 16:30  NNE 15/ 26  22.2 12.7  1015.4    0.2   0.0   0.0   0.0   ----- 
Wed 17:00    N 13/ 26  21.2 12.6  1015.6    0.2   0.0   0.0   0.0   ----- 
Wed 17:30    N 11/ 22  20.2 12.4  1015.8    0.2   0.0   0.0   0.0   ----- 
Wed 18:00  NNE  9/ 20  19.3 12.1  1016.0    0.2   0.0   0.0   0.0   ----- 
Wed 18:30  NNE  9/ 19  18.5 13.8  1016.1    0.2   0.0   0.0   0.0   ----- 
Wed 19:00  NNE  9/ 19  18.0 14.5  1016.6    0.2   0.0   0.0   0.0   ----- 
Wed 19:30  NNE  9/ 17  17.8 14.7  1016.8    0.2   0.0   0.0   0.0   ----- 
Wed 20:00  NNE  7/ 15  17.6 14.9  1017.1    0.2   0.0   0.0   0.0   ----- 
Wed 20:30   NE  7/ 15  17.5 15.0  1017.5    0.2   0.0   0.0   0.0   ----- 
Wed 21:00   NE  7/ 13  17.2 14.8  1017.8    0.2   0.0   0.0   0.0   ----- 

YEPPOON THE ESPLANADE

Site: 033294
Alt: 5.5m
36km NE of ROCKHAMPTON


  Time     Wind        Temp  DP   Baro     Rain since   Rain past  Vis(m), Cloud(base in m), Weather
  local        km/h                         9am  last   hr   10m    
Wed 16:00   NE 17/ 24  22.8 15.1  1014.2    0.0   0.0   0.0   0.0   ----- 
Wed 16:30   NE 15/ 20  22.7 16.3  1014.5    0.0   0.0   0.0   0.0   ----- 
Wed 17:00   NE 17/ 22  22.3 15.4  1014.7    0.0   0.0   0.0   0.0   ----- 
Wed 17:30   NE 19/ 24  22.0 15.6  1014.9    0.0   0.0   0.0   0.0   ----- 
Wed 18:00   NE 19/ 24  21.9 15.5  1015.1    0.0   0.0   0.0   0.0   ----- 
Wed 18:30   NE 19/ 22  21.9 16.0  1015.4    0.0   0.0   0.0   0.0   ----- 
Wed 19:00   NE 17/ 24  21.9 16.2  1015.8    0.0   0.0   0.0   0.0   ----- 
Wed 19:30   NE 17/ 22  21.9 16.2  1016.0    0.0   0.0   0.0   0.0   ----- 
Wed 20:00  NNE 22/ 28  21.8 16.1  1016.3    0.0   0.0   0.0   0.0   ----- 
Wed 20:30    N 15/ 19  20.6 15.4  1016.5    0.0   0.0   0.0   0.0   ----- 
Wed 21:00    N  9/ 13  20.2 15.2  1016.6    0.0   0.0   0.0   0.0   -----